Time;durP1;ratioP1;P1;durP2;ratioP2;P2;SDS_P1;SDS_P2;PMS_P1;PMS_P2;Temp;Humidity;BMP_temperature;BMP_pressure;BME280_temperature;BME280_humidity;BME280_pressure;Samples;Min_cycle;Max_cycle;Signal;HPM_P1;HPM_P2
2023/03/01 00:02:24;;;;;;;7.88;3.65;;;26.80;99.90;;;;;;4981576;28;20212;-76
2023/03/01 00:04:56;;;;;;;8.20;3.65;;;26.90;99.90;;;;;;4981916;28;20740;-75
2023/03/01 00:07:29;;;;;;;5.65;3.08;;;27.00;99.90;;;;;;4984446;28;20216;-75
2023/03/01 00:10:00;;;;;;;10.05;3.38;;;27.10;99.90;;;;;;4991524;28;20210;-76
2023/03/01 00:12:31;;;;;;;7.00;3.25;;;27.20;99.90;;;;;;4985233;28;20201;-75
2023/03/01 00:15:02;;;;;;;4.90;2.90;;;27.10;99.90;;;;;;4985056;28;20918;-76
2023/03/01 00:17:34;;;;;;;6.47;2.92;;;27.20;99.90;;;;;;4983176;28;20202;-77
2023/03/01 00:20:07;;;;;;;6.57;3.28;;;27.20;99.90;;;;;;4984375;28;20213;-77
2023/03/01 00:22:40;;;;;;;5.28;3.20;;;27.20;99.90;;;;;;4990436;28;20276;-77
2023/03/01 00:25:12;;;;;;;5.05;2.85;;;27.20;99.90;;;;;;4988402;28;20242;-74
2023/03/01 00:27:43;;;;;;;4.50;2.63;;;27.30;99.90;;;;;;4998034;28;20194;-76
2023/03/01 00:30:14;;;;;;;8.57;3.20;;;27.30;99.90;;;;;;4983522;28;20217;-76
2023/03/01 00:32:46;;;;;;;6.00;2.90;;;27.40;99.90;;;;;;4982551;28;20700;-74
2023/03/01 00:35:17;;;;;;;7.28;2.90;;;27.40;99.90;;;;;;4988674;28;20236;-76
2023/03/01 00:37:53;;;;;;;10.18;3.20;;;27.50;99.90;;;;;;4989048;28;20230;-75
2023/03/01 00:40:24;;;;;;;7.70;3.05;;;27.50;99.90;;;;;;4988202;28;20210;-77
2023/03/01 00:42:55;;;;;;;7.13;3.00;;;27.60;99.90;;;;;;4985671;28;20676;-76
2023/03/01 00:45:28;;;;;;;4.38;2.60;;;27.60;99.90;;;;;;4991567;28;20198;-76
2023/03/01 00:48:00;;;;;;;7.97;3.10;;;27.70;99.90;;;;;;4984032;28;20664;-77
2023/03/01 00:50:31;;;;;;;5.63;2.42;;;27.70;99.90;;;;;;4986590;28;20666;-78
2023/03/01 00:53:05;;;;;;;4.03;2.40;;;27.70;99.90;;;;;;4984121;28;20209;-78
2023/03/01 00:55:36;;;;;;;5.45;2.55;;;27.70;99.90;;;;;;4982499;28;20391;-78
2023/03/01 00:58:07;;;;;;;4.65;2.35;;;27.80;99.90;;;;;;4995305;28;20206;-77
2023/03/01 01:00:38;;;;;;;5.30;2.22;;;27.80;99.90;;;;;;4983631;28;20194;-77
2023/03/01 01:03:10;;;;;;;4.10;1.77;;;27.80;99.90;;;;;;4985229;28;20202;-77
2023/03/01 01:05:41;;;;;;;6.07;2.00;;;27.90;99.90;;;;;;4984017;28;20202;-76
2023/03/01 01:08:14;;;;;;;4.60;1.98;;;27.80;99.90;;;;;;4984962;28;20644;-77
2023/03/01 01:10:47;;;;;;;4.18;2.05;;;27.70;99.90;;;;;;4985348;28;20244;-77
2023/03/01 01:13:18;;;;;;;3.40;1.83;;;27.70;99.90;;;;;;4992456;28;20198;-77
2023/03/01 01:15:49;;;;;;;7.65;1.85;;;27.80;99.90;;;;;;4986822;28;20226;-77
2023/03/01 01:18:20;;;;;;;2.50;1.63;;;27.70;99.90;;;;;;4982241;28;20206;-77
2023/03/01 01:20:51;;;;;;;3.00;1.75;;;27.70;99.90;;;;;;4982404;28;20217;-77
2023/03/01 01:23:24;;;;;;;4.80;1.83;;;27.60;99.90;;;;;;4989681;28;20213;-77
2023/03/01 01:25:56;;;;;;;6.68;1.83;;;27.60;99.90;;;;;;4982835;28;20625;-77
2023/03/01 01:28:27;;;;;;;3.92;1.88;;;27.60;99.90;;;;;;4985529;28;20202;-79
2023/03/01 01:30:58;;;;;;;6.57;1.67;;;27.60;99.90;;;;;;4982724;28;20213;-76
2023/03/01 01:33:29;;;;;;;6.00;1.65;;;27.60;99.90;;;;;;4982572;28;20581;-77
2023/03/01 01:36:00;;;;;;;7.38;1.50;;;27.60;99.90;;;;;;4982781;28;21029;-75
2023/03/01 01:38:33;;;;;;;2.67;1.48;;;27.60;99.90;;;;;;4994913;28;20190;-76
2023/03/01 01:41:04;;;;;;;4.43;1.30;;;27.50;99.90;;;;;;4984760;28;20229;-76
2023/03/01 01:43:40;;;;;;;4.43;1.60;;;27.60;99.90;;;;;;4982006;28;20222;-76
2023/03/01 01:46:20;;;;;;;4.00;1.52;;;27.60;99.90;;;;;;4983905;28;20206;-76
2023/03/01 01:48:55;;;;;;;6.40;1.45;;;27.70;99.90;;;;;;4988566;28;20205;-76
2023/03/01 01:51:40;;;;;;;6.47;1.50;;;27.60;99.90;;;;;;4982490;28;20839;-75
2023/03/01 01:54:17;;;;;;;3.33;1.40;;;27.60;99.90;;;;;;4982574;28;20270;-76
2023/03/01 01:56:52;;;;;;;4.28;1.30;;;27.50;99.90;;;;;;4994724;28;20225;-76
2023/03/01 01:59:25;;;;;;;4.82;1.23;;;27.60;99.90;;;;;;4990204;28;20206;-78
2023/03/01 02:01:57;;;;;;;3.90;1.10;;;27.60;99.90;;;;;;4984272;28;20245;-78
2023/03/01 02:04:28;;;;;;;8.65;1.20;;;27.60;99.90;;;;;;4982452;28;20319;-77
2023/03/01 02:07:04;;;;;;;4.97;1.60;;;27.60;99.90;;;;;;4982653;28;20225;-76
2023/03/01 02:09:38;;;;;;;1.90;1.00;;;27.70;99.90;;;;;;4989085;28;20692;-76
2023/03/01 02:12:10;;;;;;;2.97;1.17;;;27.70;99.90;;;;;;4981819;28;20202;-76
2023/03/01 02:14:41;;;;;;;5.95;1.40;;;27.80;99.90;;;;;;4983874;28;20198;-76
2023/03/01 02:17:15;;;;;;;3.90;1.20;;;27.80;99.90;;;;;;4982535;28;20251;-77
2023/03/01 02:20:06;;;;;;;3.80;1.52;;;27.80;99.90;;;;;;4982202;28;20946;-76
2023/03/01 02:22:40;;;;;;;4.90;1.50;;;27.70;99.90;;;;;;5016723;28;20213;-77
2023/03/01 02:25:30;;;;;;;3.13;1.52;;;27.60;99.90;;;;;;5010505;28;20190;-76
2023/03/01 02:28:08;;;;;;;2.80;1.33;;;27.70;99.90;;;;;;5008781;28;20206;-77
2023/03/01 02:31:41;;;;;;;4.85;1.50;;;27.80;99.90;;;;;;5011209;28;20648;-78
2023/03/01 02:33:32;;;;;;;2.00;1.17;;;28.00;99.90;;;;;;5011564;28;20226;-78
2023/03/01 02:36:05;;;;;;;2.05;1.25;;;28.10;99.90;;;;;;4992143;28;20206;-78
2023/03/01 02:38:37;;;;;;;1.88;1.45;;;28.20;99.90;;;;;;4994332;28;20716;-76
2023/03/01 02:41:09;;;;;;;5.38;1.30;;;28.20;99.90;;;;;;5005835;28;21175;-77
2023/03/01 02:43:40;;;;;;;3.97;1.40;;;28.30;99.90;;;;;;4992458;28;20206;-78
2023/03/01 02:46:19;;;;;;;2.58;1.25;;;28.30;99.90;;;;;;4992664;28;20202;-77
2023/03/01 02:48:52;;;;;;;3.30;1.15;;;28.10;99.90;;;;;;4990935;28;20288;-77
2023/03/01 02:51:45;;;;;;;1.83;1.00;;;28.00;99.90;;;;;;4991548;28;20665;-78
2023/03/01 02:54:24;;;;;;;3.15;0.85;;;27.90;99.90;;;;;;4992123;28;20763;-78
2023/03/01 02:56:56;;;;;;;4.72;0.88;;;27.90;99.90;;;;;;4992442;28;21727;-78
2023/03/01 02:59:33;;;;;;;2.03;1.10;;;27.90;99.90;;;;;;4991171;28;20252;-80
2023/03/01 03:02:07;;;;;;;4.68;1.23;;;27.90;99.90;;;;;;4989890;28;20201;-77
2023/03/01 03:04:38;;;;;;;2.40;1.20;;;28.00;99.90;;;;;;4993388;28;20689;-77
2023/03/01 03:07:09;;;;;;;3.80;1.27;;;28.00;99.90;;;;;;4990343;28;20194;-77
2023/03/01 03:09:40;;;;;;;4.72;1.10;;;28.00;99.90;;;;;;4990732;28;20210;-78
2023/03/01 03:12:11;;;;;;;5.43;1.33;;;28.20;99.90;;;;;;4994647;28;20213;-78
2023/03/01 03:14:42;;;;;;;2.63;1.00;;;28.30;99.90;;;;;;4995541;28;20198;-78
2023/03/01 03:17:16;;;;;;;2.78;1.25;;;28.50;99.90;;;;;;4994746;28;20229;-78
2023/03/01 03:19:47;;;;;;;1.77;1.00;;;28.60;99.90;;;;;;4990821;28;20205;-78
2023/03/01 03:22:18;;;;;;;1.92;1.02;;;28.60;99.90;;;;;;5002055;28;20202;-76
2023/03/01 03:24:50;;;;;;;3.38;1.08;;;28.80;99.90;;;;;;4997010;28;20290;-77
2023/03/01 03:27:21;;;;;;;2.92;1.08;;;28.90;99.90;;;;;;4999816;28;20205;-78
2023/03/01 03:29:52;;;;;;;1.60;0.80;;;29.00;99.90;;;;;;4994495;28;20657;-77
2023/03/01 03:32:27;;;;;;;3.35;1.10;;;28.80;99.90;;;;;;5007921;28;20198;-79
2023/03/01 03:34:58;;;;;;;7.93;1.20;;;28.70;99.90;;;;;;5003144;28;20200;-78
2023/03/01 03:40:17;;;;;;;5.10;1.10;;;28.70;99.90;;;;;;5002809;28;20264;-79
2023/03/01 03:42:48;;;;;;;12.30;1.73;;;28.70;99.90;;;;;;5008903;28;20233;-79
2023/03/01 03:45:22;;;;;;;9.75;1.60;;;28.60;99.90;;;;;;5010178;28;20194;-80
2023/03/01 03:47:55;;;;;;;8.32;1.50;;;28.40;99.90;;;;;;5009424;28;20205;-79
2023/03/01 03:50:26;;;;;;;7.13;1.60;;;28.30;99.90;;;;;;5006640;28;20213;-79
2023/03/01 03:52:57;;;;;;;4.93;1.10;;;28.10;99.90;;;;;;5009605;28;20220;-80
2023/03/01 03:55:30;;;;;;;6.93;1.08;;;27.90;99.90;;;;;;5009696;28;20201;-79
2023/03/01 03:58:06;;;;;;;4.47;1.00;;;27.80;99.90;;;;;;5007662;28;20308;-77
2023/03/01 04:00:38;;;;;;;4.00;1.02;;;27.80;99.90;;;;;;5011794;28;20198;-79
2023/03/01 04:03:12;;;;;;;5.38;1.13;;;27.80;99.90;;;;;;4997526;28;20571;-79
2023/03/01 04:05:44;;;;;;;12.43;1.50;;;27.80;99.90;;;;;;5009140;28;20294;-79
2023/03/01 04:08:15;;;;;;;2.58;0.90;;;28.00;99.90;;;;;;5012530;28;20202;-77
2023/03/01 04:10:48;;;;;;;6.40;1.00;;;28.00;99.90;;;;;;5009196;28;20198;-78
2023/03/01 04:13:21;;;;;;;4.93;1.00;;;28.00;99.90;;;;;;4992760;28;20218;-78
2023/03/01 04:15:53;;;;;;;4.15;0.70;;;27.80;99.90;;;;;;5002550;28;20221;-77
2023/03/01 04:18:27;;;;;;;6.78;0.65;;;27.60;99.90;;;;;;5009524;28;20224;-77
2023/03/01 04:20:58;;;;;;;5.18;1.02;;;27.40;99.90;;;;;;5008271;28;20203;-78
2023/03/01 04:23:29;;;;;;;5.50;0.90;;;27.30;99.90;;;;;;4999990;28;20205;-77
2023/03/01 04:26:01;;;;;;;5.47;0.90;;;27.40;99.90;;;;;;5018271;28;20205;-77
2023/03/01 04:28:36;;;;;;;5.97;0.98;;;27.30;99.90;;;;;;5011151;28;20644;-78
2023/03/01 04:31:12;;;;;;;1.83;0.88;;;27.40;99.90;;;;;;5011129;28;20641;-77
2023/03/01 04:33:47;;;;;;;4.70;0.85;;;27.50;99.90;;;;;;5011560;28;20206;-78
2023/03/01 04:36:19;;;;;;;4.43;1.13;;;27.40;99.90;;;;;;5009803;28;20205;-77
2023/03/01 04:38:50;;;;;;;4.25;1.00;;;27.30;99.90;;;;;;5011405;28;20347;-77
2023/03/01 04:41:22;;;;;;;9.68;1.27;;;27.50;99.90;;;;;;5010648;28;20226;-78
2023/03/01 04:43:53;;;;;;;4.72;1.00;;;27.50;99.90;;;;;;5012005;28;20194;-77
2023/03/01 04:46:25;;;;;;;6.28;1.30;;;27.40;99.90;;;;;;5010782;28;20206;-78
2023/03/01 04:48:58;;;;;;;6.68;1.05;;;27.20;99.90;;;;;;5001713;28;20209;-78
2023/03/01 04:51:29;;;;;;;5.35;1.20;;;27.10;99.90;;;;;;5010952;28;20205;-79
2023/03/01 04:54:00;;;;;;;3.35;0.90;;;27.10;99.90;;;;;;5012834;28;20222;-79
2023/03/01 04:56:31;;;;;;;6.68;0.98;;;27.00;99.90;;;;;;5014396;28;20201;-79
2023/03/01 04:59:05;;;;;;;6.50;1.35;;;27.10;99.90;;;;;;5016653;28;20198;-78
2023/03/01 05:01:36;;;;;;;7.10;1.20;;;27.10;99.90;;;;;;5015354;28;20201;-78
2023/03/01 05:04:13;;;;;;;5.30;1.10;;;27.10;99.90;;;;;;5011940;28;20205;-79
2023/03/01 05:06:44;;;;;;;3.30;1.08;;;27.00;99.90;;;;;;5011967;28;20194;-78
2023/03/01 05:09:15;;;;;;;5.53;1.20;;;27.10;99.90;;;;;;5011851;28;20205;-79
2023/03/01 05:11:46;;;;;;;5.70;1.10;;;27.10;99.90;;;;;;5012781;28;20205;-79
2023/03/01 05:14:17;;;;;;;4.95;1.30;;;27.00;99.90;;;;;;5013086;28;20194;-79
2023/03/01 05:16:48;;;;;;;2.90;1.00;;;27.00;99.90;;;;;;5010243;28;20600;-79
2023/03/01 05:19:22;;;;;;;7.30;1.13;;;27.10;99.90;;;;;;5012225;28;20194;-79
2023/03/01 05:22:05;;;;;;;4.80;1.38;;;27.10;99.90;;;;;;5001166;28;20248;-79
2023/03/01 05:24:38;;;;;;;5.00;1.27;;;27.10;99.90;;;;;;5012501;28;20244;-79
2023/03/01 05:27:11;;;;;;;8.73;1.58;;;27.10;99.90;;;;;;5014671;28;20194;-79
2023/03/01 05:29:42;;;;;;;5.55;1.52;;;27.00;99.90;;;;;;5019361;28;20202;-78
2023/03/01 05:32:15;;;;;;;5.68;1.23;;;27.00;99.90;;;;;;5005148;28;20601;-79
2023/03/01 05:34:48;;;;;;;3.10;1.20;;;27.10;99.90;;;;;;5008914;28;20209;-78
2023/03/01 05:37:19;;;;;;;5.28;1.23;;;27.30;99.90;;;;;;5008543;28;20233;-79
2023/03/01 05:39:51;;;;;;;7.22;1.40;;;27.40;99.90;;;;;;5014837;28;20656;-79
2023/03/01 05:42:22;;;;;;;4.78;1.38;;;27.50;99.90;;;;;;5016764;28;20234;-79
2023/03/01 05:44:53;;;;;;;7.25;1.65;;;27.50;99.90;;;;;;5011187;28;20653;-79
2023/03/01 05:47:24;;;;;;;5.85;1.50;;;27.40;99.90;;;;;;5008480;28;20681;-79
2023/03/01 05:49:57;;;;;;;7.20;1.65;;;27.50;99.90;;;;;;5013348;28;20197;-78
2023/03/01 05:52:30;;;;;;;3.33;1.45;;;27.50;99.90;;;;;;5011516;28;20222;-79
2023/03/01 05:55:01;;;;;;;7.55;1.75;;;27.30;99.90;;;;;;5011455;28;20198;-79
2023/03/01 05:57:33;;;;;;;8.18;1.60;;;27.30;99.90;;;;;;5010226;28;20229;-79
2023/03/01 06:00:06;;;;;;;9.85;1.65;;;27.30;99.90;;;;;;5012301;28;20216;-78
2023/03/01 06:02:37;;;;;;;9.02;1.65;;;27.40;99.90;;;;;;5009358;28;20236;-77
2023/03/01 06:05:12;;;;;;;12.70;2.00;;;27.70;99.90;;;;;;4998878;28;20595;-77
2023/03/01 06:07:44;;;;;;;7.45;2.13;;;27.70;99.90;;;;;;5006810;28;20216;-79
2023/03/01 06:10:16;;;;;;;6.10;1.67;;;27.80;99.90;;;;;;5012195;28;20553;-79
2023/03/01 06:12:47;;;;;;;17.13;1.95;;;27.80;99.90;;;;;;5011223;28;20201;-79
2023/03/01 06:15:19;;;;;;;8.55;1.70;;;27.90;99.90;;;;;;5026461;28;20213;-79
2023/03/01 06:17:51;;;;;;;6.80;1.80;;;28.20;99.90;;;;;;5009749;28;20226;-79
2023/03/01 06:20:25;;;;;;;9.70;1.50;;;28.20;99.90;;;;;;5018666;28;20212;-78
2023/03/01 06:22:58;;;;;;;10.25;2.35;;;28.20;99.90;;;;;;5012517;28;20204;-79
2023/03/01 06:25:30;;;;;;;6.13;1.73;;;28.30;99.90;;;;;;5013898;28;20205;-78
2023/03/01 06:28:01;;;;;;;11.02;2.47;;;28.30;99.90;;;;;;5006517;28;20195;-78
2023/03/01 06:30:33;;;;;;;11.93;2.00;;;28.50;99.90;;;;;;5009250;28;20190;-76
2023/03/01 06:33:05;;;;;;;12.50;2.13;;;28.60;99.90;;;;;;5009230;28;20234;-76
2023/03/01 06:35:40;;;;;;;8.48;2.00;;;28.70;99.90;;;;;;5012042;28;20198;-76
2023/03/01 06:38:11;;;;;;;9.13;2.33;;;28.60;99.90;;;;;;5010299;28;20217;-76
2023/03/01 06:40:43;;;;;;;9.75;2.70;;;28.70;99.90;;;;;;5009384;28;20208;-76
2023/03/01 06:43:14;;;;;;;11.55;2.15;;;28.50;99.90;;;;;;5011192;28;20206;-78
2023/03/01 06:45:47;;;;;;;15.50;2.58;;;28.60;99.90;;;;;;5010842;28;20209;-76
2023/03/01 06:48:18;;;;;;;10.38;2.42;;;28.70;99.90;;;;;;5009501;28;20221;-76
2023/03/01 06:50:51;;;;;;;8.85;2.10;;;28.80;99.90;;;;;;5010925;28;20573;-76
2023/03/01 06:53:22;;;;;;;6.68;2.33;;;28.80;99.90;;;;;;5010380;28;20198;-78
2023/03/01 06:55:59;;;;;;;10.98;2.33;;;28.90;99.90;;;;;;5011681;28;20680;-77
2023/03/01 06:58:30;;;;;;;10.93;2.38;;;28.90;99.90;;;;;;5010128;28;21192;-77
2023/03/01 07:01:01;;;;;;;12.68;2.60;;;29.00;99.90;;;;;;5010872;28;20200;-77
2023/03/01 07:03:32;;;;;;;8.93;2.50;;;28.70;99.90;;;;;;5010495;28;20382;-77
2023/03/01 07:06:05;;;;;;;11.65;2.40;;;28.80;99.90;;;;;;5011365;28;20488;-77
2023/03/01 07:08:37;;;;;;;10.80;2.30;;;29.10;99.90;;;;;;5007800;28;20543;-78
2023/03/01 07:11:08;;;;;;;9.40;2.10;;;29.30;99.90;;;;;;5009366;28;20589;-77
2023/03/01 07:13:39;;;;;;;15.88;2.72;;;29.60;99.90;;;;;;5010098;28;20209;-79
2023/03/01 07:16:10;;;;;;;10.50;2.35;;;29.60;99.90;;;;;;5011035;28;20205;-77
2023/03/01 07:18:42;;;;;;;7.85;2.15;;;30.00;99.90;;;;;;5008863;28;20238;-77
2023/03/01 07:21:16;;;;;;;8.57;2.05;;;30.20;99.90;;;;;;5011193;28;20221;-78
2023/03/01 07:23:50;;;;;;;9.55;2.40;;;30.30;99.90;;;;;;5016187;28;20225;-77
2023/03/01 07:26:21;;;;;;;9.18;2.20;;;30.30;99.90;;;;;;5010734;28;20279;-78
2023/03/01 07:28:52;;;;;;;8.90;2.38;;;30.00;99.90;;;;;;5008670;28;20205;-78
2023/03/01 07:31:23;;;;;;;11.65;2.28;;;30.10;99.90;;;;;;5014552;28;20197;-77
2023/03/01 07:33:54;;;;;;;9.55;2.10;;;29.80;99.90;;;;;;5010493;28;20661;-75
2023/03/01 07:36:27;;;;;;;11.95;2.55;;;29.60;99.90;;;;;;5010129;28;20661;-76
2023/03/01 07:38:58;;;;;;;11.02;2.50;;;29.30;99.90;;;;;;5008096;28;20249;-75
2023/03/01 07:41:30;;;;;;;11.05;2.45;;;29.10;99.90;;;;;;5009950;28;20632;-77
2023/03/01 07:44:01;;;;;;;11.02;2.80;;;29.00;99.90;;;;;;5009055;28;20205;-78
2023/03/01 07:46:32;;;;;;;10.32;2.15;;;28.80;99.90;;;;;;5008840;28;20190;-78
2023/03/01 07:49:03;;;;;;;8.85;2.30;;;28.50;99.90;;;;;;5008468;28;20205;-78
2023/03/01 07:51:36;;;;;;;9.32;2.50;;;28.30;99.90;;;;;;5009971;28;20209;-78
2023/03/01 07:54:07;;;;;;;9.38;2.00;;;28.10;99.90;;;;;;5010596;28;20561;-78
2023/03/01 07:56:38;;;;;;;11.48;2.45;;;27.80;99.90;;;;;;5015693;28;20567;-78
2023/03/01 07:59:11;;;;;;;12.45;2.67;;;27.50;99.90;;;;;;4995208;28;20230;-79
2023/03/01 08:01:42;;;;;;;9.43;1.92;;;27.20;99.90;;;;;;5006736;28;20598;-78
2023/03/01 08:04:13;;;;;;;10.35;2.40;;;26.90;99.90;;;;;;5010462;28;20190;-78
2023/03/01 08:06:46;;;;;;;10.30;2.70;;;26.80;99.90;;;;;;5009829;28;20217;-78
2023/03/01 08:09:17;;;;;;;6.50;2.00;;;26.60;99.90;;;;;;5008746;28;20202;-77
2023/03/01 08:11:52;;;;;;;10.93;2.65;;;26.60;99.90;;;;;;5008749;28;20198;-77
2023/03/01 08:14:23;;;;;;;12.50;2.83;;;26.40;99.90;;;;;;5010308;28;20205;-78
2023/03/01 08:16:54;;;;;;;9.63;2.28;;;26.20;99.90;;;;;;5009805;28;20213;-78
2023/03/01 08:19:27;;;;;;;9.30;2.38;;;26.20;99.90;;;;;;5009940;28;20225;-77
2023/03/01 08:22:00;;;;;;;9.68;2.45;;;26.10;99.90;;;;;;5009452;28;20214;-76
2023/03/01 08:24:32;;;;;;;8.90;2.90;;;25.90;99.90;;;;;;5009669;28;20309;-78
2023/03/01 08:27:03;;;;;;;11.90;2.63;;;25.80;99.90;;;;;;5009790;28;20233;-78
2023/03/01 08:29:35;;;;;;;9.00;2.60;;;25.80;99.90;;;;;;5014986;28;20280;-75
2023/03/01 08:32:07;;;;;;;7.38;1.92;;;25.70;99.90;;;;;;5023643;28;20213;-78
2023/03/01 08:34:38;;;;;;;11.82;3.10;;;25.70;99.90;;;;;;5013713;28;20209;-77
2023/03/01 08:37:11;;;;;;;10.40;2.45;;;25.70;99.90;;;;;;5012810;28;20213;-75
2023/03/01 08:39:43;;;;;;;10.45;4.00;;;25.70;99.90;;;;;;5013462;28;20237;-77
2023/03/01 08:42:14;;;;;;;7.18;2.17;;;25.60;99.90;;;;;;5010159;28;20218;-77
2023/03/01 08:44:45;;;;;;;11.27;2.72;;;25.60;99.90;;;;;;5014226;28;20202;-79
2023/03/01 08:47:16;;;;;;;8.15;2.22;;;25.60;99.90;;;;;;5015633;28;20209;-77
2023/03/01 08:49:47;;;;;;;11.18;2.58;;;25.60;99.90;;;;;;5013479;28;20209;-78
2023/03/01 08:52:20;;;;;;;8.68;2.40;;;25.60;99.90;;;;;;5010667;28;20205;-78
2023/03/01 08:54:52;;;;;;;10.05;2.53;;;25.50;99.90;;;;;;5008263;28;20194;-78
2023/03/01 08:57:23;;;;;;;9.50;2.70;;;25.40;99.90;;;;;;5009931;28;20198;-78
2023/03/01 08:59:55;;;;;;;13.00;2.95;;;25.40;99.90;;;;;;5012277;28;20205;-78
2023/03/01 09:02:26;;;;;;;8.32;2.47;;;25.40;99.90;;;;;;5017772;28;20320;-77
2023/03/01 09:04:58;;;;;;;12.15;2.40;;;25.40;99.90;;;;;;5016812;28;20285;-77
2023/03/01 09:07:31;;;;;;;8.98;2.53;;;25.40;99.90;;;;;;5011198;28;20194;-78
2023/03/01 09:10:02;;;;;;;7.70;2.28;;;25.50;99.90;;;;;;5016545;28;20555;-76
2023/03/01 09:12:37;;;;;;;9.40;2.65;;;25.50;99.90;;;;;;5014794;28;20701;-77
2023/03/01 09:15:09;;;;;;;13.48;2.45;;;25.50;99.90;;;;;;5015162;28;20352;-77
2023/03/01 09:17:40;;;;;;;8.20;2.30;;;25.50;99.90;;;;;;5016211;28;20201;-78
2023/03/01 09:20:11;;;;;;;8.07;2.38;;;25.50;99.90;;;;;;5012822;28;20210;-78
2023/03/01 09:22:46;;;;;;;10.75;2.38;;;25.40;99.90;;;;;;5022954;28;20664;-78
2023/03/01 09:25:17;;;;;;;13.93;2.65;;;25.50;99.90;;;;;;5005119;28;20259;-77
2023/03/01 09:27:48;;;;;;;9.82;2.30;;;25.50;99.90;;;;;;5018548;28;20205;-78
2023/03/01 09:30:26;;;;;;;9.20;2.95;;;25.40;99.90;;;;;;5021110;28;20198;-76
2023/03/01 09:33:01;;;;;;;11.38;2.20;;;25.40;99.90;;;;;;5018678;28;20202;-77
2023/03/01 09:35:34;;;;;;;9.35;2.33;;;25.40;99.90;;;;;;5014220;28;20537;-78
2023/03/01 09:38:07;;;;;;;9.80;2.60;;;25.40;99.90;;;;;;5018284;28;20224;-77
2023/03/01 09:40:42;;;;;;;11.23;3.10;;;25.40;99.90;;;;;;5024221;28;20688;-77
2023/03/01 09:43:24;;;;;;;12.48;2.25;;;25.50;99.90;;;;;;5015344;28;20240;-77
2023/03/01 09:45:58;;;;;;;13.73;2.83;;;25.50;99.90;;;;;;5015832;28;20229;-79
2023/03/01 09:48:31;;;;;;;6.65;2.30;;;25.40;99.90;;;;;;5014932;28;20198;-78
2023/03/01 09:51:09;;;;;;;11.85;2.67;;;25.40;99.90;;;;;;5016238;28;20200;-77
2023/03/01 09:53:42;;;;;;;8.60;2.15;;;25.30;99.90;;;;;;5015269;28;20572;-78
2023/03/01 09:56:21;;;;;;;9.98;2.90;;;25.30;99.90;;;;;;5012470;28;20264;-78
2023/03/01 09:59:00;;;;;;;7.70;2.22;;;25.40;99.90;;;;;;5016371;28;20625;-78
2023/03/01 10:01:38;;;;;;;11.50;2.75;;;25.30;99.90;;;;;;5015296;28;20201;-78
2023/03/01 10:04:34;;;;;;;10.45;2.50;;;25.30;99.90;;;;;;5016137;28;20190;-78
2023/03/01 10:07:28;;;;;;;10.52;2.60;;;25.30;99.90;;;;;;5017014;28;20672;-77
2023/03/01 10:10:04;;;;;;;9.82;2.45;;;25.20;99.90;;;;;;5008463;28;20201;-80
2023/03/01 10:12:44;;;;;;;12.80;2.50;;;25.30;99.90;;;;;;5021792;28;20206;-78
2023/03/01 10:15:21;;;;;;;10.75;2.50;;;25.30;99.90;;;;;;5012548;28;20214;-77
2023/03/01 10:17:55;;;;;;;11.52;2.47;;;25.30;99.90;;;;;;5011498;28;20198;-78
2023/03/01 10:20:28;;;;;;;8.20;2.00;;;25.20;99.90;;;;;;5014130;28;20201;-78
2023/03/01 10:22:59;;;;;;;9.57;2.20;;;25.30;99.90;;;;;;5013564;28;20198;-78
2023/03/01 10:25:55;;;;;;;7.53;2.05;;;25.20;99.90;;;;;;5011906;28;20261;-78
2023/03/01 10:28:33;;;;;;;8.27;2.28;;;25.20;99.90;;;;;;5007563;28;20222;-73
2023/03/01 10:31:05;;;;;;;7.28;2.13;;;25.30;99.90;;;;;;5010651;28;20226;-79
2023/03/01 10:33:41;;;;;;;5.30;1.90;;;25.40;99.90;;;;;;5010466;28;20551;-79
2023/03/01 10:36:13;;;;;;;11.57;2.42;;;25.40;99.90;;;;;;5011808;28;20205;-79
2023/03/01 10:38:54;;;;;;;5.57;1.70;;;25.40;99.90;;;;;;5012181;28;20305;-78
2023/03/01 10:41:29;;;;;;;7.65;2.25;;;25.40;99.90;;;;;;5010362;28;20719;-79
2023/03/01 10:44:01;;;;;;;8.05;2.00;;;25.30;99.90;;;;;;5007180;28;20654;-78
2023/03/01 10:46:34;;;;;;;9.32;2.20;;;25.30;99.90;;;;;;5000697;28;20205;-79
2023/03/01 10:49:17;;;;;;;8.27;2.05;;;25.30;99.90;;;;;;5010316;28;20206;-77
2023/03/01 10:51:50;;;;;;;7.57;2.20;;;25.30;99.90;;;;;;5006131;28;20208;-78
2023/03/01 10:54:24;;;;;;;9.63;2.28;;;25.30;99.90;;;;;;5008415;28;20210;-79
2023/03/01 10:56:58;;;;;;;10.63;2.67;;;25.30;99.90;;;;;;5011408;28;20204;-78
2023/03/01 10:59:34;;;;;;;11.68;2.65;;;25.20;99.90;;;;;;5008143;28;20312;-78
2023/03/01 11:02:20;;;;;;;9.77;2.63;;;25.20;99.90;;;;;;5009916;28;20562;-78
2023/03/01 11:05:12;;;;;;;7.10;2.20;;;25.20;99.90;;;;;;5011094;28;20201;-78
2023/03/01 11:07:52;;;;;;;9.18;2.22;;;25.10;99.90;;;;;;5010506;28;20209;-79
2023/03/01 11:10:27;;;;;;;11.02;2.75;;;24.90;99.90;;;;;;5009423;28;20202;-79
2023/03/01 11:13:11;;;;;;;9.75;2.33;;;24.90;99.90;;;;;;5011159;28;20201;-79
2023/03/01 11:15:45;;;;;;;7.20;2.30;;;24.80;99.90;;;;;;5008498;28;20284;-79
2023/03/01 11:18:25;;;;;;;9.10;2.50;;;24.80;99.90;;;;;;5009616;28;20309;-77
2023/03/01 11:20:59;;;;;;;10.30;2.33;;;24.70;99.90;;;;;;5012541;28;20189;-78
2023/03/01 11:23:33;;;;;;;8.70;1.90;;;24.70;99.90;;;;;;5010426;28;20622;-79
2023/03/01 11:26:08;;;;;;;7.68;2.00;;;24.70;99.90;;;;;;5012306;28;20212;-78
2023/03/01 11:28:42;;;;;;;7.75;2.00;;;24.70;99.90;;;;;;5021294;28;20251;-78
2023/03/01 11:31:16;;;;;;;6.93;2.05;;;24.70;99.90;;;;;;5010807;28;20213;-79
2023/03/01 11:33:51;;;;;;;8.40;2.47;;;24.70;99.90;;;;;;5010661;28;20645;-79
2023/03/01 11:36:31;;;;;;;10.05;2.20;;;24.70;99.90;;;;;;5009537;28;20216;-78
2023/03/01 11:39:08;;;;;;;9.40;2.40;;;24.70;99.90;;;;;;5020294;28;20631;-79
2023/03/01 11:41:42;;;;;;;11.23;2.67;;;24.80;99.90;;;;;;5007857;28;20591;-79
2023/03/01 11:44:20;;;;;;;8.20;2.13;;;24.80;99.90;;;;;;5010561;28;20664;-79
2023/03/01 11:47:11;;;;;;;9.93;2.47;;;24.80;99.90;;;;;;4991382;28;20203;-79
2023/03/01 11:50:10;;;;;;;9.60;2.33;;;24.80;99.90;;;;;;5001087;28;20288;-79
2023/03/01 11:52:51;;;;;;;10.55;2.65;;;24.80;99.90;;;;;;5005031;28;20273;-79
2023/03/01 11:55:38;;;;;;;10.23;2.42;;;24.80;99.90;;;;;;5010377;28;20660;-79
2023/03/01 11:58:23;;;;;;;8.45;2.10;;;24.80;99.90;;;;;;5010772;28;20221;-79
2023/03/01 12:01:26;;;;;;;5.97;1.77;;;24.80;99.90;;;;;;5006992;28;20229;-78
2023/03/01 12:04:24;;;;;;;7.53;1.88;;;24.80;99.90;;;;;;5009702;28;20201;-79
2023/03/01 12:07:03;;;;;;;8.20;2.13;;;24.80;99.90;;;;;;5014418;28;20202;-79
2023/03/01 12:10:02;;;;;;;8.05;2.25;;;24.80;99.90;;;;;;5013357;28;20193;-80
2023/03/01 12:12:38;;;;;;;5.45;1.77;;;24.80;99.90;;;;;;5013614;28;20197;-79
2023/03/01 12:15:35;;;;;;;9.10;2.20;;;24.80;99.90;;;;;;5012634;28;20212;-79
2023/03/01 12:18:31;;;;;;;8.18;1.88;;;24.80;99.90;;;;;;5013641;28;20198;-79
2023/03/01 12:21:13;;;;;;;6.80;1.90;;;24.80;99.90;;;;;;5005250;28;20201;-79
2023/03/01 12:24:13;;;;;;;6.80;2.42;;;24.80;99.90;;;;;;5014145;28;20201;-79
2023/03/01 12:26:53;;;;;;;6.40;2.08;;;24.70;99.90;;;;;;5018569;28;20198;-75
2023/03/01 12:29:34;;;;;;;8.98;2.15;;;24.70;99.90;;;;;;5017881;28;20668;-79
2023/03/01 12:32:26;;;;;;;5.75;1.80;;;24.70;99.90;;;;;;5003860;28;20576;-79
2023/03/01 12:35:13;;;;;;;5.47;2.08;;;24.70;99.90;;;;;;5011955;28;20198;-79
2023/03/01 12:37:57;;;;;;;5.20;1.73;;;24.70;99.90;;;;;;5012551;28;20201;-79
2023/03/01 12:40:45;;;;;;;6.43;1.85;;;24.80;99.90;;;;;;5012237;28;20230;-79
2023/03/01 12:43:29;;;;;;;10.23;2.33;;;24.80;99.90;;;;;;5008672;28;20723;-79
2023/03/01 12:46:15;;;;;;;6.82;2.00;;;24.70;99.90;;;;;;5013002;28;20197;-78
2023/03/01 12:49:03;;;;;;;5.90;1.98;;;24.70;99.90;;;;;;5012192;28;20198;-79
2023/03/01 12:51:39;;;;;;;6.60;2.10;;;24.70;99.90;;;;;;5017779;28;20198;-78
2023/03/01 12:54:18;;;;;;;7.75;2.08;;;24.70;99.90;;;;;;5011414;28;20194;-78
2023/03/01 12:56:51;;;;;;;5.82;2.10;;;24.70;99.90;;;;;;5011595;28;20198;-76
2023/03/01 12:59:29;;;;;;;6.90;1.98;;;24.70;99.90;;;;;;5012108;28;20216;-78
2023/03/01 13:02:11;;;;;;;5.45;1.90;;;24.70;99.90;;;;;;5008810;28;20203;-77
2023/03/01 13:05:02;;;;;;;7.18;2.15;;;24.70;99.90;;;;;;4998148;28;20336;-78
2023/03/01 13:07:41;;;;;;;6.25;1.88;;;24.70;99.90;;;;;;5011540;28;20245;-78
2023/03/01 13:10:29;;;;;;;5.63;1.80;;;24.70;99.90;;;;;;5009748;28;20205;-79
2023/03/01 13:13:15;;;;;;;6.78;2.35;;;24.60;99.90;;;;;;5004659;28;20210;-78
2023/03/01 13:15:47;;;;;;;6.95;1.83;;;24.70;99.90;;;;;;5006679;28;20707;-78
2023/03/01 13:18:40;;;;;;;7.43;2.03;;;24.70;99.90;;;;;;5012546;28;20222;-78
2023/03/01 13:21:11;;;;;;;5.57;2.13;;;24.60;99.90;;;;;;5005643;28;20229;-78
2023/03/01 13:23:50;;;;;;;7.20;1.98;;;24.60;99.90;;;;;;5012930;28;20841;-78
2023/03/01 13:26:21;;;;;;;6.00;1.90;;;24.60;99.90;;;;;;5018206;28;20228;-77
2023/03/01 13:29:01;;;;;;;8.20;2.25;;;24.60;99.90;;;;;;5014573;28;20217;-77